createdAt,value
2022-09-09T00:01:21.498Z,100202.91
2022-09-09T00:03:57.146Z,100195.44
2022-09-09T00:06:28.032Z,100193.78
2022-09-09T00:09:03.051Z,100198.81
2022-09-09T00:11:46.350Z,100197.66
2022-09-09T00:14:20.810Z,100202.34
2022-09-09T00:16:52.823Z,100190.66
2022-09-09T00:19:25.054Z,100191.00
2022-09-09T00:22:02.491Z,100189.69
2022-09-09T00:24:32.607Z,100191.81
2022-09-09T00:27:04.343Z,100197.66
2022-09-09T00:29:38.200Z,100196.38
2022-09-09T00:32:14.471Z,100193.44
2022-09-09T00:34:50.799Z,100194.84
2022-09-09T00:37:18.544Z,100195.56
2022-09-09T00:39:48.766Z,100195.31
2022-09-09T00:42:19.054Z,100193.81
2022-09-09T00:44:55.273Z,100192.53
2022-09-09T00:47:37.598Z,100189.47
2022-09-09T00:50:27.341Z,100188.31
2022-09-09T00:53:01.215Z,100199.06
2022-09-09T00:55:35.311Z,100197.44
2022-09-09T00:58:02.833Z,100203.03
2022-09-09T01:00:32.381Z,100202.97
2022-09-09T01:03:15.620Z,100200.28
2022-09-09T01:05:48.198Z,100200.28
2022-09-09T01:08:25.313Z,100201.94
2022-09-09T01:10:54.657Z,100206.09
2022-09-09T01:13:26.458Z,100202.56
2022-09-09T01:15:59.699Z,100198.94
2022-09-09T01:18:35.394Z,100193.03
2022-09-09T01:21:10.662Z,100192.88
2022-09-09T01:23:47.203Z,100189.13
2022-09-09T01:26:25.065Z,100191.94
2022-09-09T01:28:54.481Z,100191.09
2022-09-09T01:31:24.745Z,100194.47
2022-09-09T01:33:52.344Z,100193.78
2022-09-09T01:36:26.741Z,100198.09
2022-09-09T01:38:54.747Z,100197.38
2022-09-09T01:41:23.638Z,100192.44
2022-09-09T01:43:51.457Z,100188.66
2022-09-09T01:46:19.535Z,100190.63
2022-09-09T01:48:47.440Z,100186.78
2022-09-09T01:51:14.916Z,100184.31
2022-09-09T01:53:43.795Z,100186.78
2022-09-09T01:56:20.363Z,100184.00
2022-09-09T01:58:58.045Z,100186.03
2022-09-09T02:01:34.466Z,100186.13
2022-09-09T02:04:05.091Z,100194.75
2022-09-09T02:06:36.253Z,100188.59
2022-09-09T02:09:06.801Z,100180.84
2022-09-09T02:11:35.151Z,100183.41
2022-09-09T02:14:07.424Z,100185.56
2022-09-09T02:16:38.743Z,100184.00
2022-09-09T02:19:13.711Z,100185.66
2022-09-09T02:21:43.065Z,100195.88
2022-09-09T02:24:11.325Z,100204.50
2022-09-09T02:26:42.558Z,100205.28
2022-09-09T02:29:14.520Z,100205.16
2022-09-09T02:31:43.602Z,100207.44
2022-09-09T02:34:11.815Z,100202.50
2022-09-09T02:36:40.948Z,100209.72
2022-09-09T02:39:10.306Z,100197.97
2022-09-09T02:41:39.678Z,100210.41
2022-09-09T02:44:07.958Z,100215.31
2022-09-09T02:46:49.227Z,100206.06
2022-09-09T02:49:20.516Z,100202.09
2022-09-09T02:51:54.017Z,100198.50
2022-09-09T02:54:25.007Z,100199.78
2022-09-09T02:56:55.231Z,100204.56
2022-09-09T02:59:23.275Z,100197.31
2022-09-09T03:01:52.178Z,100197.91
2022-09-09T03:04:19.688Z,100202.59
2022-09-09T03:06:47.362Z,100199.09
2022-09-09T03:09:15.076Z,100193.72
2022-09-09T03:11:42.593Z,100206.34
2022-09-09T03:14:12.213Z,100204.47
2022-09-09T03:16:39.778Z,100194.06
2022-09-09T03:19:08.725Z,100191.84
2022-09-09T03:21:36.728Z,100186.13
2022-09-09T03:24:05.216Z,100192.88
2022-09-09T03:26:33.103Z,100191.69
2022-09-09T03:29:01.314Z,100191.75
2022-09-09T03:31:31.057Z,100189.84
2022-09-09T03:33:59.053Z,100201.38
2022-09-09T03:36:29.041Z,100197.00
2022-09-09T03:38:56.607Z,100200.03
2022-09-09T03:41:24.973Z,100202.38
2022-09-09T03:43:52.723Z,100213.75
2022-09-09T03:46:20.387Z,100206.50
2022-09-09T03:48:47.965Z,100200.47
2022-09-09T03:51:16.753Z,100194.44
2022-09-09T03:53:45.540Z,100189.75
2022-09-09T03:56:13.044Z,100189.97
2022-09-09T03:58:41.823Z,100198.13
2022-09-09T04:01:11.692Z,100185.66
2022-09-09T04:03:39.161Z,100188.41
2022-09-09T04:06:08.743Z,100182.59
2022-09-09T04:08:37.097Z,100179.97
2022-09-09T04:11:07.117Z,100179.41
2022-09-09T04:13:35.045Z,100179.03
2022-09-09T04:16:04.514Z,100175.50
2022-09-09T04:18:32.394Z,100176.84
2022-09-09T04:21:00.362Z,100174.38
2022-09-09T04:23:29.737Z,100176.38
2022-09-09T04:25:58.687Z,100172.91
2022-09-09T04:28:30.154Z,100170.22
2022-09-09T04:30:58.501Z,100168.09
2022-09-09T04:33:27.562Z,100176.03
2022-09-09T04:35:55.773Z,100166.97
2022-09-09T04:38:24.737Z,100162.97
2022-09-09T04:40:54.790Z,100160.09
2022-09-09T04:43:23.203Z,100162.28
2022-09-09T04:45:53.254Z,100166.47
2022-09-09T04:48:21.782Z,100167.31
2022-09-09T04:50:56.613Z,100169.63
2022-09-09T04:53:24.464Z,100183.09
2022-09-09T04:55:51.918Z,100178.50
2022-09-09T04:58:19.362Z,100176.84
2022-09-09T05:00:47.342Z,100183.66
2022-09-09T05:03:16.200Z,100181.78
2022-09-09T05:05:43.665Z,100188.50
2022-09-09T05:08:11.126Z,100191.63
2022-09-09T05:10:39.903Z,100197.34
2022-09-09T05:13:07.476Z,100193.25
2022-09-09T05:15:34.995Z,100192.28
2022-09-09T05:18:03.400Z,100205.94
2022-09-09T05:20:32.825Z,100207.56
2022-09-09T05:23:00.291Z,100209.97
2022-09-09T05:25:27.882Z,100214.28
2022-09-09T05:27:55.621Z,100210.75
2022-09-09T05:30:24.156Z,100216.44
2022-09-09T05:32:51.621Z,100226.50
2022-09-09T05:35:20.121Z,100218.16
2022-09-09T05:37:49.347Z,100222.63
2022-09-09T05:40:16.973Z,100225.91
2022-09-09T05:42:44.458Z,100227.53
2022-09-09T05:45:12.423Z,100239.47
2022-09-09T05:47:39.888Z,100230.34
2022-09-09T05:50:08.570Z,100236.09
2022-09-09T05:52:36.028Z,100238.09
2022-09-09T05:55:05.943Z,100240.56
2022-09-09T05:57:33.433Z,100248.38
2022-09-09T06:00:01.358Z,100247.78
2022-09-09T06:02:29.035Z,100259.72
2022-09-09T06:05:00.524Z,100256.66
2022-09-09T06:07:28.370Z,100256.59
2022-09-09T06:09:56.582Z,100247.94
2022-09-09T06:12:25.370Z,100248.09
2022-09-09T06:14:52.820Z,100245.41
2022-09-09T06:17:20.381Z,100245.28
2022-09-09T06:19:47.852Z,100252.66
2022-09-09T06:22:15.352Z,100255.75
2022-09-09T06:24:42.804Z,100250.88
2022-09-09T06:27:10.284Z,100256.34
2022-09-09T06:33:12.091Z,100257.75
2022-09-09T06:35:39.537Z,100251.44
2022-09-09T06:38:07.287Z,100257.63
2022-09-09T06:40:34.734Z,100251.94
2022-09-09T06:43:02.798Z,100256.09
2022-09-09T06:45:30.532Z,100257.53
2022-09-09T06:47:58.587Z,100255.75
2022-09-09T06:50:27.344Z,100262.44
2022-09-09T06:52:54.780Z,100268.97
2022-09-09T06:55:22.372Z,100258.91
2022-09-09T06:57:51.104Z,100253.53
2022-09-09T07:00:19.211Z,100255.44
2022-09-09T07:02:46.673Z,100259.41
2022-09-09T07:05:14.136Z,100255.19
2022-09-09T07:07:42.946Z,100253.88
2022-09-09T07:10:10.910Z,100245.47
2022-09-09T07:12:38.358Z,100254.47
2022-09-09T07:15:06.995Z,100263.38
2022-09-09T07:17:34.481Z,100264.44
2022-09-09T07:20:02.873Z,100263.47
2022-09-09T07:22:30.515Z,100265.84
2022-09-09T07:24:59.289Z,100269.69
2022-09-09T07:27:26.731Z,100262.88
2022-09-09T07:29:55.116Z,100264.53
2022-09-09T07:32:22.772Z,100260.56
2022-09-09T07:34:51.161Z,100261.47
2022-09-09T07:37:18.764Z,100259.59
2022-09-09T07:39:46.326Z,100273.97
2022-09-09T07:42:15.781Z,100252.09
2022-09-09T07:44:43.232Z,100265.78
2022-09-09T07:47:10.746Z,100264.56
2022-09-09T07:49:38.257Z,100272.91
2022-09-09T07:54:33.717Z,100274.25
2022-09-09T07:57:01.270Z,100276.94
2022-09-09T07:59:30.862Z,100285.84
2022-09-09T08:01:59.397Z,100291.00
2022-09-09T08:04:29.009Z,100286.88
2022-09-09T08:06:57.932Z,100295.38
2022-09-09T08:09:28.066Z,100288.16
2022-09-09T08:11:57.227Z,100297.25
2022-09-09T08:14:36.574Z,100292.81
2022-09-09T08:17:04.229Z,100295.34
2022-09-09T08:19:33.982Z,100286.84
2022-09-09T08:22:02.725Z,100287.19
2022-09-09T08:24:30.494Z,100292.56
2022-09-09T08:26:58.425Z,100295.59
2022-09-09T08:29:25.855Z,100293.66
2022-09-09T08:31:58.073Z,100293.00
2022-09-09T08:34:27.907Z,100302.38
2022-09-09T08:36:56.250Z,100300.16
2022-09-09T08:39:24.108Z,100303.44
2022-09-09T08:42:03.009Z,100302.72
2022-09-09T08:44:38.764Z,100299.13
2022-09-09T08:47:12.338Z,100300.50
2022-09-09T08:49:51.697Z,100298.72
2022-09-09T08:52:21.995Z,100288.66
2022-09-09T08:54:52.656Z,100291.00
2022-09-09T08:57:22.245Z,100280.69
2022-09-09T08:59:54.020Z,100281.66
2022-09-09T09:02:28.050Z,100280.59
2022-09-09T09:05:10.619Z,100272.84
2022-09-09T09:07:52.048Z,100274.97
2022-09-09T09:10:41.017Z,100285.34
2022-09-09T09:13:15.055Z,100272.00
2022-09-09T09:15:43.905Z,100282.22
2022-09-09T09:18:15.005Z,100276.56
2022-09-09T09:20:48.419Z,100280.94
2022-09-09T09:23:23.260Z,100290.28
2022-09-09T09:25:52.487Z,100288.47
2022-09-09T09:28:25.537Z,100284.53
2022-09-09T09:30:56.341Z,100286.66
2022-09-09T09:33:28.643Z,100288.97
2022-09-09T09:35:56.115Z,100288.22
2022-09-09T09:41:12.628Z,100277.88
2022-09-09T09:43:42.999Z,100271.97
2022-09-09T09:46:21.715Z,100267.31
2022-09-09T09:48:59.982Z,100268.25
2022-09-09T09:51:28.312Z,100278.16
2022-09-09T09:53:56.778Z,100267.19
2022-09-09T09:56:30.856Z,100274.72
2022-09-09T09:58:58.652Z,100258.88
2022-09-09T10:01:28.654Z,100263.94
2022-09-09T10:04:00.925Z,100254.22
2022-09-09T10:06:33.977Z,100254.50
2022-09-09T10:09:02.457Z,100261.72
2022-09-09T10:11:39.520Z,100257.50
2022-09-09T10:14:15.986Z,100257.72
2022-09-09T10:16:55.183Z,100255.75
2022-09-09T10:19:31.910Z,100248.53
2022-09-09T10:22:20.533Z,100247.81
2022-09-09T10:25:00.878Z,100246.66
2022-09-09T10:27:35.757Z,100245.69
2022-09-09T10:30:12.448Z,100245.72
2022-09-09T10:32:43.859Z,100244.50
2022-09-09T10:35:16.974Z,100242.34
2022-09-09T10:37:55.560Z,100246.09
2022-09-09T10:40:31.452Z,100241.75
2022-09-09T10:43:06.200Z,100252.94
2022-09-09T10:45:41.979Z,100245.53
2022-09-09T10:48:22.259Z,100253.06
2022-09-09T10:51:11.452Z,100260.38
2022-09-09T10:53:45.645Z,100257.25
2022-09-09T10:56:15.713Z,100249.13
2022-09-09T10:58:48.518Z,100241.56
2022-09-09T11:01:20.845Z,100235.50
2022-09-09T11:03:54.905Z,100231.66
2022-09-09T11:06:29.153Z,100239.28
2022-09-09T11:08:59.371Z,100236.25
2022-09-09T11:11:31.413Z,100233.91
2022-09-09T11:14:03.427Z,100236.94
2022-09-09T11:16:32.705Z,100237.16
2022-09-09T11:19:03.610Z,100239.91
2022-09-09T11:21:37.011Z,100238.03
2022-09-09T11:24:06.974Z,100242.47
2022-09-09T11:26:39.958Z,100236.88
2022-09-09T11:29:27.001Z,100238.81
2022-09-09T11:32:04.643Z,100240.75
2022-09-09T11:34:39.574Z,100240.03
2022-09-09T11:37:24.513Z,100240.63
2022-09-09T11:40:03.639Z,100232.81
2022-09-09T11:42:31.203Z,100232.84
2022-09-09T11:44:59.039Z,100232.16
2022-09-09T11:47:30.939Z,100222.63
2022-09-09T11:50:10.245Z,100242.91
2022-09-09T11:52:43.126Z,100254.19
2022-09-09T11:55:13.034Z,100244.91
2022-09-09T11:57:40.724Z,100263.13
2022-09-09T12:00:29.418Z,100255.63
2022-09-09T12:02:56.930Z,100247.13
2022-09-09T12:05:24.641Z,100253.28
2022-09-09T12:07:56.832Z,100248.13
2022-09-09T12:10:28.516Z,100241.84
2022-09-09T12:12:55.974Z,100247.38
2022-09-09T12:15:30.071Z,100239.22
2022-09-09T12:18:03.317Z,100234.94
2022-09-09T12:20:35.753Z,100234.56
2022-09-09T12:23:33.954Z,100236.00
2022-09-09T12:26:15.294Z,100233.50
2022-09-09T12:28:49.984Z,100232.63
2022-09-09T12:31:23.032Z,100225.66
2022-09-09T12:33:51.048Z,100231.06
2022-09-09T12:36:21.379Z,100228.13
2022-09-09T12:38:53.332Z,100248.06
2022-09-09T12:41:22.681Z,100277.16
2022-09-09T12:43:50.970Z,100292.16
2022-09-09T12:46:25.112Z,100264.44
2022-09-09T12:48:52.764Z,100252.16
2022-09-09T12:51:23.562Z,100237.09
2022-09-09T12:53:53.012Z,100240.84
2022-09-09T12:56:21.977Z,100244.50
2022-09-09T12:58:52.544Z,100248.25
2022-09-09T13:01:24.682Z,100239.03
2022-09-09T13:03:53.545Z,100235.84
2022-09-09T13:06:28.073Z,100242.88
2022-09-09T13:09:02.154Z,100245.69
2022-09-09T13:11:32.428Z,100251.56
2022-09-09T13:14:00.797Z,100245.22
2022-09-09T13:16:32.884Z,100249.81
2022-09-09T13:19:01.671Z,100256.28
2022-09-09T13:21:38.219Z,100255.03
2022-09-09T13:24:08.534Z,100246.00
2022-09-09T13:26:36.921Z,100243.84
2022-09-09T13:29:19.945Z,100244.25
2022-09-09T13:31:48.087Z,100242.53
2022-09-09T13:34:17.091Z,100239.56
2022-09-09T13:36:50.076Z,100231.63
2022-09-09T13:39:19.818Z,100234.38
2022-09-09T13:41:49.422Z,100230.56
2022-09-09T13:44:21.118Z,100226.59
2022-09-09T13:46:48.765Z,100225.00
2022-09-09T13:49:23.511Z,100235.63
2022-09-09T13:51:54.637Z,100234.75
2022-09-09T13:54:23.833Z,100231.53
2022-09-09T13:56:52.269Z,100235.69
2022-09-09T13:59:22.296Z,100236.03
2022-09-09T14:01:53.455Z,100243.63
2022-09-09T14:04:22.125Z,100242.75
2022-09-09T14:06:50.359Z,100247.84
2022-09-09T14:09:19.205Z,100260.53
2022-09-09T14:11:48.442Z,100257.72
2022-09-09T14:14:16.309Z,100260.16
2022-09-09T14:16:43.990Z,100257.72
2022-09-09T14:19:12.895Z,100256.16
2022-09-09T14:21:40.638Z,100260.41
2022-09-09T14:24:08.440Z,100261.63
2022-09-09T14:26:36.209Z,100256.06
2022-09-09T14:29:05.243Z,100260.31
2022-09-09T14:31:33.832Z,100265.56
2022-09-09T14:34:01.611Z,100257.47
2022-09-09T14:36:29.410Z,100259.00
2022-09-09T14:38:57.023Z,100251.03
2022-09-09T14:41:24.709Z,100242.69
2022-09-09T14:43:53.243Z,100249.34
2022-09-09T14:46:22.481Z,100239.34
2022-09-09T14:48:50.737Z,100227.59
2022-09-09T14:51:20.505Z,100231.72
2022-09-09T14:53:49.034Z,100231.63
2022-09-09T14:56:18.322Z,100232.72
2022-09-09T14:58:47.315Z,100219.53
2022-09-09T15:01:16.741Z,100211.41
2022-09-09T15:03:51.525Z,100198.84
2022-09-09T15:06:19.727Z,100192.53
2022-09-09T15:08:48.054Z,100193.59
2022-09-09T15:11:17.121Z,100205.63
2022-09-09T15:13:45.632Z,100200.84
2022-09-09T15:16:15.368Z,100205.91
2022-09-09T15:18:47.729Z,100201.47
2022-09-09T15:21:17.137Z,100208.00
2022-09-09T15:23:45.408Z,100212.50
2022-09-09T15:26:15.018Z,100210.63
2022-09-09T15:28:46.606Z,100202.91
2022-09-09T15:31:16.459Z,100206.03
2022-09-09T15:33:49.394Z,100209.19
2022-09-09T15:36:18.751Z,100210.69
2022-09-09T15:38:46.592Z,100216.13
2022-09-09T15:41:15.019Z,100211.94
2022-09-09T15:43:46.603Z,100215.13
2022-09-09T15:46:35.700Z,100220.31
2022-09-09T15:49:07.668Z,100218.53
2022-09-09T15:51:42.576Z,100227.09
2022-09-09T15:54:11.291Z,100233.88
2022-09-09T15:56:38.853Z,100232.88
2022-09-09T15:59:06.574Z,100232.06
2022-09-09T16:01:34.717Z,100232.78
2022-09-09T16:04:02.537Z,100233.88
2022-09-09T16:06:32.112Z,100239.75
2022-09-09T16:09:01.867Z,100240.97
2022-09-09T16:11:31.981Z,100236.97
2022-09-09T16:14:01.173Z,100230.44
2022-09-09T16:16:30.726Z,100226.84
2022-09-09T16:19:01.605Z,100219.31
2022-09-09T16:21:32.550Z,100216.03
2022-09-09T16:24:03.475Z,100223.88
2022-09-09T16:26:32.342Z,100222.72
2022-09-09T16:29:00.585Z,100215.53
2022-09-09T16:31:29.638Z,100224.19
2022-09-09T16:33:57.641Z,100220.03
2022-09-09T16:36:26.937Z,100230.31
2022-09-09T16:38:58.382Z,100227.22
2022-09-09T16:41:27.796Z,100226.97
2022-09-09T16:43:56.319Z,100243.16
2022-09-09T16:46:25.155Z,100238.00
2022-09-09T16:48:53.840Z,100236.63
2022-09-09T16:51:24.338Z,100238.00
2022-09-09T16:53:52.280Z,100238.63
2022-09-09T16:56:23.074Z,100240.19
2022-09-09T16:58:52.076Z,100233.34
2022-09-09T17:01:19.857Z,100245.91
2022-09-09T17:03:47.643Z,100245.69
2022-09-09T17:06:16.681Z,100241.16
2022-09-09T17:08:48.827Z,100256.00
2022-09-09T17:11:17.433Z,100262.13
2022-09-09T17:13:47.288Z,100253.06
2022-09-09T17:16:16.385Z,100256.72
2022-09-09T17:18:44.050Z,100266.34
2022-09-09T17:21:14.845Z,100264.81
2022-09-09T17:23:43.444Z,100269.63
2022-09-09T17:26:12.575Z,100269.69
2022-09-09T17:28:41.017Z,100261.59
2022-09-09T17:31:11.439Z,100263.75
2022-09-09T17:33:40.712Z,100262.97
2022-09-09T17:36:10.272Z,100259.41
2022-09-09T17:38:37.814Z,100261.84
2022-09-09T17:41:06.605Z,100255.25
2022-09-09T17:43:34.819Z,100269.94
2022-09-09T17:46:11.679Z,100268.41
2022-09-09T17:48:39.245Z,100263.50
2022-09-09T17:51:08.683Z,100271.84
2022-09-09T17:53:39.015Z,100266.69
2022-09-09T17:56:08.887Z,100268.47
2022-09-09T17:58:37.195Z,100283.66
2022-09-09T18:01:06.462Z,100273.66
2022-09-09T18:03:37.166Z,100278.56
2022-09-09T18:06:06.110Z,100284.84
2022-09-09T18:08:36.763Z,100287.84
2022-09-09T18:11:05.232Z,100291.69
2022-09-09T18:13:32.958Z,100295.69
2022-09-09T18:16:00.929Z,100306.38
2022-09-09T18:18:30.274Z,100311.31
2022-09-09T18:21:01.767Z,100318.34
2022-09-09T18:23:30.149Z,100316.25
2022-09-09T18:25:59.025Z,100319.41
2022-09-09T18:28:27.618Z,100313.44
2022-09-09T18:30:55.441Z,100319.53
2022-09-09T18:33:23.594Z,100321.28
2022-09-09T18:35:51.384Z,100327.59
2022-09-09T18:38:25.214Z,100326.63
2022-09-09T18:40:53.406Z,100325.94
2022-09-09T18:43:28.701Z,100332.28
2022-09-09T18:45:58.286Z,100333.66
2022-09-09T18:48:26.055Z,100340.66
2022-09-09T18:50:53.899Z,100349.56
2022-09-09T18:53:23.181Z,100346.63
2022-09-09T18:56:00.204Z,100353.84
2022-09-09T18:58:28.090Z,100358.78
2022-09-09T19:00:56.158Z,100357.06
2022-09-09T19:03:24.235Z,100358.53
2022-09-09T19:05:52.810Z,100364.66
2022-09-09T19:08:22.245Z,100375.84
2022-09-09T19:10:52.137Z,100376.38
2022-09-09T19:13:19.760Z,100374.53
2022-09-09T19:15:47.390Z,100378.88
2022-09-09T19:18:15.194Z,100377.28
2022-09-09T19:20:42.844Z,100387.53
2022-09-09T19:23:10.408Z,100394.78
2022-09-09T19:25:38.406Z,100386.91
2022-09-09T19:28:09.913Z,100405.94
2022-09-09T19:30:39.142Z,100394.88
2022-09-09T19:33:08.117Z,100408.53
2022-09-09T19:35:35.684Z,100402.34
2022-09-09T19:38:03.288Z,100402.63
2022-09-09T19:40:31.106Z,100384.09
2022-09-09T19:43:00.219Z,100394.03
2022-09-09T19:45:29.420Z,100381.91
2022-09-09T19:47:57.344Z,100384.72
2022-09-09T19:50:25.090Z,100389.47
2022-09-09T19:52:52.985Z,100391.06
2022-09-09T19:55:20.569Z,100397.91
2022-09-09T19:57:48.234Z,100398.00
2022-09-09T20:00:16.124Z,100387.72
2022-09-09T20:03:02.757Z,100387.94
2022-09-09T20:05:33.443Z,100375.28
2022-09-09T20:08:01.054Z,100382.94
2022-09-09T20:10:28.990Z,100383.81
2022-09-09T20:12:56.653Z,100380.53
2022-09-09T20:15:24.452Z,100375.28
2022-09-09T20:17:54.520Z,100371.63
2022-09-09T20:20:22.240Z,100378.09
2022-09-09T20:22:49.886Z,100378.31
2022-09-09T20:25:17.629Z,100380.69
2022-09-09T20:27:45.644Z,100381.13
2022-09-09T20:30:14.938Z,100375.75
2022-09-09T20:32:42.951Z,100375.97
2022-09-09T20:35:12.144Z,100378.41
2022-09-09T20:37:41.782Z,100379.31
2022-09-09T20:40:10.350Z,100378.88
2022-09-09T20:42:38.349Z,100382.09
2022-09-09T20:45:07.029Z,100390.34
2022-09-09T20:47:34.833Z,100387.00
2022-09-09T20:50:02.818Z,100394.22
2022-09-09T20:52:31.747Z,100391.00
2022-09-09T20:54:59.476Z,100399.53
2022-09-09T20:57:27.213Z,100394.22
2022-09-09T20:59:55.017Z,100401.13
2022-09-09T21:02:22.731Z,100395.38
2022-09-09T21:04:50.513Z,100393.69
2022-09-09T21:07:18.242Z,100396.59
2022-09-09T21:09:48.241Z,100399.25
2022-09-09T21:12:16.762Z,100393.09
2022-09-09T21:14:44.390Z,100387.50
2022-09-09T21:17:17.481Z,100392.38
2022-09-09T21:19:45.209Z,100383.81
2022-09-09T21:22:14.131Z,100395.97
2022-09-09T21:24:41.900Z,100400.47
2022-09-09T21:27:11.018Z,100399.25
2022-09-09T21:29:38.622Z,100396.72
2022-09-09T21:32:06.523Z,100401.72
2022-09-09T21:34:35.409Z,100403.53
2022-09-09T21:37:03.113Z,100410.66
2022-09-09T21:39:31.007Z,100408.47
2022-09-09T21:41:58.997Z,100406.00
2022-09-09T21:44:31.199Z,100403.56
2022-09-09T21:46:58.826Z,100407.00
2022-09-09T21:49:27.596Z,100404.19
2022-09-09T21:52:03.963Z,100411.94
2022-09-09T21:54:32.542Z,100410.31
2022-09-09T21:57:02.138Z,100408.28
2022-09-09T21:59:32.741Z,100419.84
2022-09-09T22:02:08.738Z,100411.72
2022-09-09T22:04:37.221Z,100419.53
2022-09-09T22:07:06.926Z,100415.47
2022-09-09T22:09:35.968Z,100434.00
2022-09-09T22:12:04.069Z,100429.38
2022-09-09T22:14:33.186Z,100426.75
2022-09-09T22:17:00.885Z,100431.97
2022-09-09T22:19:33.361Z,100434.47
2022-09-09T22:22:01.140Z,100429.94
2022-09-09T22:24:28.760Z,100422.31
2022-09-09T22:26:56.334Z,100419.59
2022-09-09T22:29:25.553Z,100418.00
2022-09-09T22:31:56.772Z,100422.25
2022-09-09T22:34:27.421Z,100417.50
2022-09-09T22:36:55.369Z,100415.66
2022-09-09T22:39:24.547Z,100408.53
2022-09-09T22:41:52.592Z,100411.44
2022-09-09T22:44:20.826Z,100409.97
2022-09-09T22:46:48.686Z,100407.44
2022-09-09T22:49:19.001Z,100411.25
2022-09-09T22:51:49.429Z,100417.38
2022-09-09T22:54:21.562Z,100411.00
2022-09-09T22:56:49.601Z,100415.34
2022-09-09T22:59:17.185Z,100410.44
2022-09-09T23:01:44.913Z,100404.50
2022-09-09T23:04:13.351Z,100410.91
2022-09-09T23:06:43.093Z,100401.75
2022-09-09T23:09:12.032Z,100412.88
2022-09-09T23:11:39.953Z,100409.56
2022-09-09T23:14:10.913Z,100423.38
2022-09-09T23:16:40.315Z,100418.06
2022-09-09T23:19:10.799Z,100415.16
2022-09-09T23:21:40.399Z,100415.81
2022-09-09T23:24:11.537Z,100417.50
2022-09-09T23:26:40.434Z,100418.69
2022-09-09T23:29:08.177Z,100426.78
2022-09-09T23:31:38.578Z,100423.16
2022-09-09T23:34:11.297Z,100421.03
2022-09-09T23:36:39.194Z,100420.22
2022-09-09T23:39:09.967Z,100423.72
2022-09-09T23:41:38.163Z,100413.94
2022-09-09T23:44:05.935Z,100407.78
2022-09-09T23:46:34.503Z,100410.22
2022-09-09T23:49:02.729Z,100407.19
2022-09-09T23:51:31.577Z,100404.72
2022-09-09T23:54:01.811Z,100415.09
2022-09-09T23:56:32.641Z,100409.31
2022-09-09T23:59:01.747Z,100422.03
